createdAt,value
2023-08-21T00:01:58.588Z,9.70
2023-08-21T00:04:29.620Z,9.50
2023-08-21T00:07:01.083Z,8.80
2023-08-21T00:09:31.785Z,9.50
2023-08-21T00:12:02.553Z,8.30
2023-08-21T00:14:33.428Z,8.70
2023-08-21T00:17:05.472Z,9.20
2023-08-21T00:19:36.427Z,9.40
2023-08-21T00:22:07.368Z,8.70
2023-08-21T00:24:38.188Z,10.60
2023-08-21T00:27:09.247Z,10.30
2023-08-21T00:29:40.279Z,9.20
2023-08-21T00:32:13.205Z,8.60
2023-08-21T00:34:44.058Z,9.00
2023-08-21T00:37:17.498Z,8.70
2023-08-21T00:39:48.301Z,8.90
2023-08-21T00:42:19.430Z,8.20
2023-08-21T00:44:50.222Z,9.00
2023-08-21T00:47:21.734Z,8.90
2023-08-21T00:49:52.766Z,8.70
2023-08-21T00:52:23.813Z,9.20
2023-08-21T00:54:55.149Z,8.20
2023-08-21T00:57:27.552Z,8.80
2023-08-21T00:59:58.439Z,9.00
2023-08-21T01:02:29.332Z,9.00
2023-08-21T01:05:00.501Z,9.00
2023-08-21T01:07:32.018Z,9.30
2023-08-21T01:10:10.572Z,9.50
2023-08-21T01:12:50.974Z,9.00
2023-08-21T01:15:22.126Z,9.40
2023-08-21T01:17:54.231Z,9.10
2023-08-21T01:20:25.553Z,8.50
2023-08-21T01:22:56.297Z,9.80
2023-08-21T01:25:27.215Z,9.80
2023-08-21T01:27:57.952Z,10.20
2023-08-21T01:30:31.069Z,10.80
2023-08-21T01:33:08.080Z,8.70
2023-08-21T01:35:39.820Z,8.60
2023-08-21T01:38:10.962Z,9.00
2023-08-21T01:40:42.303Z,9.10
2023-08-21T01:43:12.980Z,8.80
2023-08-21T01:45:43.796Z,9.10
2023-08-21T01:48:14.761Z,9.50
2023-08-21T01:50:45.618Z,9.90
2023-08-21T01:53:16.289Z,9.40
2023-08-21T01:55:47.149Z,10.00
2023-08-21T01:58:17.890Z,10.00
2023-08-21T02:00:51.365Z,9.10
2023-08-21T02:03:22.333Z,8.80
2023-08-21T02:05:53.560Z,9.50
2023-08-21T02:08:24.203Z,9.20
2023-08-21T02:10:55.362Z,8.70
2023-08-21T02:13:26.203Z,9.40
2023-08-21T02:15:57.193Z,10.50
2023-08-21T02:18:28.210Z,9.60
2023-08-21T02:20:58.955Z,9.40
2023-08-21T02:23:30.087Z,8.30
2023-08-21T02:26:00.986Z,8.40
2023-08-21T02:28:32.156Z,9.10
2023-08-21T02:31:03.064Z,9.30
2023-08-21T02:33:34.775Z,9.10
2023-08-21T02:36:05.946Z,9.80
2023-08-21T02:38:36.818Z,9.10
2023-08-21T02:41:07.540Z,9.70
2023-08-21T02:43:39.054Z,9.90
2023-08-21T02:46:09.935Z,10.00
2023-08-21T02:48:40.817Z,9.00
2023-08-21T02:51:11.963Z,10.10
2023-08-21T02:53:42.746Z,9.30
2023-08-21T02:56:13.769Z,8.90
2023-08-21T02:58:44.535Z,9.30
2023-08-21T03:01:15.515Z,9.10
2023-08-21T03:03:46.519Z,9.20
2023-08-21T03:06:17.883Z,9.10
2023-08-21T03:08:49.139Z,10.30
2023-08-21T03:11:20.038Z,9.60
2023-08-21T03:13:50.776Z,9.10
2023-08-21T03:16:21.488Z,9.40
2023-08-21T03:19:02.881Z,8.90
2023-08-21T03:21:33.636Z,9.10
2023-08-21T03:24:05.181Z,8.80
2023-08-21T03:26:36.509Z,8.60
2023-08-21T03:29:07.597Z,9.20
2023-08-21T03:31:38.307Z,8.60
2023-08-21T03:34:09.750Z,8.90
2023-08-21T03:36:40.610Z,9.20
2023-08-21T03:39:11.561Z,10.30
2023-08-21T03:41:42.319Z,8.70
2023-08-21T03:44:15.496Z,8.80
2023-08-21T03:46:46.805Z,8.90
2023-08-21T03:49:20.547Z,8.10
2023-08-21T03:51:51.717Z,10.10
2023-08-21T03:54:22.624Z,10.80
2023-08-21T03:56:53.326Z,8.70
2023-08-21T03:59:25.047Z,8.70
2023-08-21T04:01:55.733Z,8.80
2023-08-21T04:04:26.468Z,8.80
2023-08-21T04:06:57.242Z,10.10
2023-08-21T04:09:27.923Z,10.80
2023-08-21T04:11:58.587Z,13.70
2023-08-21T04:14:29.886Z,15.60
2023-08-21T04:17:00.582Z,10.60
2023-08-21T04:19:34.779Z,13.60
2023-08-21T04:22:05.653Z,14.40
2023-08-21T04:24:36.374Z,12.10
2023-08-21T04:27:07.564Z,11.60
2023-08-21T04:29:38.924Z,16.20
2023-08-21T04:32:10.044Z,14.70
2023-08-21T04:34:40.784Z,17.10
2023-08-21T04:37:11.431Z,13.50
2023-08-21T04:39:42.127Z,10.00
2023-08-21T04:42:13.202Z,12.00
2023-08-21T04:44:43.926Z,11.50
2023-08-21T04:47:25.352Z,9.70
2023-08-21T04:49:57.212Z,9.50
2023-08-21T04:52:28.524Z,8.20
2023-08-21T04:54:59.299Z,12.60
2023-08-21T04:57:30.094Z,9.60
2023-08-21T05:00:01.231Z,11.60
2023-08-21T05:02:32.345Z,9.00
2023-08-21T05:05:03.254Z,9.60
2023-08-21T05:07:34.033Z,9.40
2023-08-21T05:10:06.067Z,8.00
2023-08-21T05:12:37.876Z,8.90
2023-08-21T05:15:10.663Z,10.00
2023-08-21T05:17:41.688Z,8.00
2023-08-21T05:20:15.947Z,9.90
2023-08-21T05:22:47.076Z,7.40
2023-08-21T05:25:18.691Z,7.80
2023-08-21T05:27:49.793Z,8.50
2023-08-21T05:30:21.360Z,7.50
2023-08-21T05:32:52.576Z,8.00
2023-08-21T05:35:23.838Z,8.00
2023-08-21T05:37:54.896Z,8.20
2023-08-21T05:40:25.762Z,6.90
2023-08-21T05:42:56.611Z,7.40
2023-08-21T05:45:27.551Z,8.60
2023-08-21T05:47:59.013Z,7.50
2023-08-21T05:50:30.055Z,9.60
2023-08-21T05:53:02.902Z,8.40
2023-08-21T05:55:34.069Z,6.60
2023-08-21T05:58:05.447Z,7.70
2023-08-21T06:00:36.999Z,6.50
2023-08-21T06:03:08.290Z,7.10
2023-08-21T06:05:39.304Z,6.60
2023-08-21T06:08:11.047Z,7.30
2023-08-21T06:10:41.955Z,7.20
2023-08-21T06:13:12.846Z,6.80
2023-08-21T06:15:46.187Z,7.60
2023-08-21T06:20:47.487Z,7.00
2023-08-21T06:23:18.325Z,6.80
2023-08-21T06:25:51.434Z,7.20
2023-08-21T06:28:22.282Z,6.90
2023-08-21T06:31:02.136Z,6.20
2023-08-21T06:33:33.103Z,7.20
2023-08-21T06:36:04.107Z,7.70
2023-08-21T06:38:36.527Z,6.30
2023-08-21T06:41:12.493Z,7.50
2023-08-21T06:43:45.534Z,6.90
2023-08-21T06:46:16.936Z,5.90
2023-08-21T06:48:48.041Z,6.30
2023-08-21T06:51:18.930Z,5.70
2023-08-21T06:53:49.908Z,5.70
2023-08-21T06:56:20.717Z,7.00
2023-08-21T06:58:51.513Z,6.50
2023-08-21T07:01:22.415Z,6.80
2023-08-21T07:03:53.506Z,6.80
2023-08-21T07:06:24.672Z,6.70
2023-08-21T07:08:55.782Z,5.90
2023-08-21T07:11:26.707Z,5.50
2023-08-21T07:13:58.018Z,6.00
2023-08-21T07:16:28.960Z,5.80
2023-08-21T07:19:00.018Z,6.40
2023-08-21T07:21:33.900Z,6.80
2023-08-21T07:24:06.718Z,7.20
2023-08-21T07:26:37.910Z,6.20
2023-08-21T07:29:09.206Z,5.90
2023-08-21T07:31:40.129Z,6.10
2023-08-21T07:34:11.244Z,5.60
2023-08-21T07:36:42.359Z,5.60
2023-08-21T07:39:13.067Z,5.80
2023-08-21T07:41:43.901Z,5.50
2023-08-21T07:44:14.715Z,5.80
2023-08-21T07:46:45.559Z,6.30
2023-08-21T07:49:16.421Z,5.90
2023-08-21T07:51:47.751Z,6.00
2023-08-21T07:54:18.913Z,6.40
2023-08-21T07:56:49.904Z,5.50
2023-08-21T07:59:21.151Z,5.70
2023-08-21T08:01:52.113Z,6.00
2023-08-21T08:04:23.921Z,5.90
2023-08-21T08:06:54.665Z,6.00
2023-08-21T08:09:26.208Z,5.70
2023-08-21T08:11:57.079Z,5.50
2023-08-21T08:14:27.794Z,5.30
2023-08-21T08:16:58.816Z,5.40
2023-08-21T08:19:30.079Z,5.70
2023-08-21T08:22:01.370Z,6.00
2023-08-21T08:24:32.157Z,5.20
2023-08-21T08:27:03.097Z,6.60
2023-08-21T08:29:34.049Z,5.50
2023-08-21T08:32:05.235Z,5.20
2023-08-21T08:34:35.952Z,5.50
2023-08-21T08:37:06.911Z,5.20
2023-08-21T08:39:37.749Z,5.60
2023-08-21T08:42:10.478Z,5.60
2023-08-21T08:44:42.401Z,5.40
2023-08-21T08:47:14.439Z,5.80
2023-08-21T08:49:45.474Z,5.20
2023-08-21T08:52:18.803Z,5.20
2023-08-21T08:57:19.232Z,5.10
2023-08-21T08:59:50.060Z,5.20
2023-08-21T09:02:21.001Z,4.90
2023-08-21T09:04:51.874Z,5.70
2023-08-21T09:07:22.995Z,4.70
2023-08-21T09:09:54.184Z,5.50
2023-08-21T09:12:25.682Z,5.40
2023-08-21T09:14:56.484Z,5.50
2023-08-21T09:17:28.216Z,5.40
2023-08-21T09:20:05.685Z,4.80
2023-08-21T09:22:36.972Z,5.20
2023-08-21T09:25:11.594Z,5.40
2023-08-21T09:27:43.453Z,4.80
2023-08-21T09:30:17.353Z,5.90
2023-08-21T09:33:01.330Z,5.00
2023-08-21T09:35:34.977Z,4.80
2023-08-21T09:38:08.130Z,5.00
2023-08-21T09:40:43.266Z,5.40
2023-08-21T09:43:14.490Z,5.50
2023-08-21T09:45:47.964Z,4.90
2023-08-21T09:48:19.043Z,5.10
2023-08-21T09:50:50.452Z,5.40
2023-08-21T09:53:22.538Z,5.20
2023-08-21T09:55:57.290Z,4.90
2023-08-21T09:58:28.396Z,5.00
2023-08-21T10:01:01.334Z,5.00
2023-08-21T10:03:34.348Z,4.70
2023-08-21T10:06:07.422Z,5.20
2023-08-21T10:08:41.838Z,4.60
2023-08-21T10:11:13.829Z,5.20
2023-08-21T10:13:46.672Z,4.60
2023-08-21T10:16:19.103Z,5.20
2023-08-21T10:18:50.418Z,4.80
2023-08-21T10:21:23.327Z,4.70
2023-08-21T10:23:58.003Z,4.90
2023-08-21T10:26:33.763Z,4.60
2023-08-21T10:29:08.517Z,5.50
2023-08-21T10:31:40.904Z,4.30
2023-08-21T10:34:14.297Z,4.50
2023-08-21T10:37:08.815Z,4.50
2023-08-21T10:39:41.483Z,4.70
2023-08-21T10:42:16.529Z,4.40
2023-08-21T10:45:00.620Z,5.00
2023-08-21T10:47:37.341Z,4.60
2023-08-21T10:50:11.248Z,5.00
2023-08-21T10:52:46.126Z,4.70
2023-08-21T10:55:19.446Z,5.30
2023-08-21T10:57:51.894Z,4.70
2023-08-21T11:00:23.867Z,4.40
2023-08-21T11:02:54.829Z,4.60
2023-08-21T11:05:25.757Z,4.60
2023-08-21T11:07:56.933Z,4.70
2023-08-21T11:10:30.440Z,4.40
2023-08-21T11:13:02.365Z,4.40
2023-08-21T11:15:33.514Z,4.40
2023-08-21T11:18:05.656Z,4.50
2023-08-21T11:20:38.690Z,4.90
2023-08-21T11:23:10.370Z,4.60
2023-08-21T11:25:43.561Z,4.30
2023-08-21T11:28:18.456Z,4.30
2023-08-21T11:30:49.329Z,4.30
2023-08-21T11:33:20.236Z,4.30
2023-08-21T11:35:53.366Z,4.70
2023-08-21T11:38:26.050Z,5.40
2023-08-21T11:40:59.441Z,4.40
2023-08-21T11:43:41.093Z,4.30
2023-08-21T11:46:13.320Z,4.30
2023-08-21T11:48:46.062Z,4.40
2023-08-21T11:51:17.089Z,4.10
2023-08-21T11:53:51.258Z,4.30
2023-08-21T11:56:24.715Z,3.90
2023-08-21T11:58:58.003Z,4.30
2023-08-21T12:01:29.321Z,4.20
2023-08-21T12:04:00.176Z,4.50
2023-08-21T12:06:33.691Z,4.70
2023-08-21T12:09:05.967Z,4.40
2023-08-21T12:11:43.340Z,4.50
2023-08-21T12:14:14.388Z,4.30
2023-08-21T12:16:46.015Z,4.30
2023-08-21T12:19:17.511Z,4.00
2023-08-21T12:21:48.478Z,4.20
2023-08-21T12:24:19.302Z,3.80
2023-08-21T12:26:51.290Z,4.10
2023-08-21T12:29:23.230Z,3.70
2023-08-21T12:31:54.994Z,4.30
2023-08-21T12:34:25.786Z,4.10
2023-08-21T12:36:57.736Z,3.40
2023-08-21T12:39:28.544Z,3.90
2023-08-21T12:42:01.676Z,3.90
2023-08-21T12:47:05.115Z,4.60
2023-08-21T12:49:36.730Z,4.10
2023-08-21T12:52:10.443Z,3.90
2023-08-21T12:54:42.781Z,4.00
2023-08-21T12:57:13.775Z,4.00
2023-08-21T12:59:44.593Z,3.70
2023-08-21T13:02:15.351Z,4.00
2023-08-21T13:04:46.167Z,4.00
2023-08-21T13:07:17.554Z,4.00
2023-08-21T13:09:48.875Z,4.10
2023-08-21T13:12:19.791Z,3.60
2023-08-21T13:14:50.918Z,3.80
2023-08-21T13:17:21.964Z,3.90
2023-08-21T13:19:52.885Z,4.00
2023-08-21T13:22:24.077Z,4.10
2023-08-21T13:24:55.065Z,4.20
2023-08-21T13:27:26.029Z,3.80
2023-08-21T13:29:57.125Z,4.00
2023-08-21T13:32:28.162Z,3.90
2023-08-21T13:35:01.340Z,4.00
2023-08-21T13:37:32.254Z,3.60
2023-08-21T13:40:12.935Z,4.10
2023-08-21T13:42:45.572Z,4.10
2023-08-21T13:45:22.357Z,4.00
2023-08-21T13:48:06.954Z,3.30
2023-08-21T13:50:38.093Z,4.00
2023-08-21T13:53:09.404Z,3.70
2023-08-21T13:55:40.591Z,3.90
2023-08-21T13:58:13.457Z,3.50
2023-08-21T14:00:46.040Z,4.10
2023-08-21T14:03:21.674Z,3.80
2023-08-21T14:05:52.818Z,4.10
2023-08-21T14:08:23.908Z,3.80
2023-08-21T14:10:58.703Z,3.80
2023-08-21T14:13:35.692Z,3.70
2023-08-21T14:16:11.228Z,3.60
2023-08-21T14:18:42.726Z,3.60
2023-08-21T14:21:13.961Z,4.10
2023-08-21T14:23:44.910Z,4.00
2023-08-21T14:26:19.047Z,8.30
2023-08-21T14:28:51.832Z,9.90
2023-08-21T14:31:22.788Z,5.10
2023-08-21T14:33:53.828Z,4.40
2023-08-21T14:36:24.961Z,6.20
2023-08-21T14:39:00.701Z,6.80
2023-08-21T14:41:33.259Z,4.80
2023-08-21T14:44:04.183Z,4.90
2023-08-21T14:49:11.413Z,6.50
2023-08-21T14:51:42.830Z,4.80
2023-08-21T14:54:13.966Z,4.70
2023-08-21T14:56:47.081Z,4.50
2023-08-21T14:59:18.191Z,5.10
2023-08-21T15:01:49.546Z,6.80
2023-08-21T15:04:20.360Z,4.20
2023-08-21T15:06:57.868Z,5.00
2023-08-21T15:09:28.850Z,4.40
2023-08-21T15:11:59.616Z,5.10
2023-08-21T15:14:30.807Z,5.00
2023-08-21T15:17:17.638Z,4.60
2023-08-21T15:19:51.353Z,4.80
2023-08-21T15:22:22.443Z,7.90
2023-08-21T15:24:53.491Z,7.00
2023-08-21T15:27:24.480Z,4.90
2023-08-21T15:29:55.376Z,5.20
2023-08-21T15:32:26.401Z,5.70
2023-08-21T15:34:57.466Z,5.40
2023-08-21T15:37:28.492Z,5.10
2023-08-21T15:39:59.525Z,6.00
2023-08-21T15:42:30.609Z,5.60
2023-08-21T15:45:01.622Z,7.10
2023-08-21T15:50:07.033Z,5.80
2023-08-21T15:52:38.870Z,6.00
2023-08-21T15:55:11.073Z,5.20
2023-08-21T15:57:42.125Z,5.90
2023-08-21T16:00:14.801Z,5.70
2023-08-21T16:02:45.619Z,5.10
2023-08-21T16:05:16.589Z,5.50
2023-08-21T16:07:47.308Z,5.40
2023-08-21T16:10:18.376Z,5.80
2023-08-21T16:12:49.182Z,5.70
2023-08-21T16:15:20.038Z,5.30
2023-08-21T16:17:51.885Z,5.60
2023-08-21T16:20:22.828Z,5.20
2023-08-21T16:22:53.609Z,5.20
2023-08-21T16:25:25.487Z,5.70
2023-08-21T16:27:56.271Z,5.30
2023-08-21T16:30:26.993Z,4.90
2023-08-21T16:32:58.076Z,5.10
2023-08-21T16:35:29.263Z,4.80
2023-08-21T16:38:00.380Z,6.60
2023-08-21T16:40:31.296Z,5.20
2023-08-21T16:43:02.319Z,4.80
2023-08-21T16:45:35.731Z,4.60
2023-08-21T16:48:07.517Z,5.40
2023-08-21T16:50:38.322Z,7.30
2023-08-21T16:53:21.744Z,6.00
2023-08-21T16:55:54.455Z,6.60
2023-08-21T16:58:25.535Z,5.60
2023-08-21T17:00:56.885Z,6.20
2023-08-21T17:03:28.261Z,7.30
2023-08-21T17:05:59.227Z,5.70
2023-08-21T17:08:30.303Z,5.90
2023-08-21T17:11:01.114Z,6.70
2023-08-21T17:13:32.237Z,8.10
2023-08-21T17:16:03.540Z,6.40
2023-08-21T17:18:34.655Z,6.50
2023-08-21T17:21:05.732Z,5.80
2023-08-21T17:23:36.581Z,5.60
2023-08-21T17:26:07.526Z,6.80
2023-08-21T17:28:38.298Z,7.70
2023-08-21T17:31:09.116Z,5.90
2023-08-21T17:33:39.957Z,6.10
2023-08-21T17:36:10.839Z,6.70
2023-08-21T17:38:42.940Z,6.70
2023-08-21T17:41:13.751Z,6.20
2023-08-21T17:43:44.666Z,6.60
2023-08-21T17:46:17.887Z,6.00
2023-08-21T17:51:18.758Z,7.20
2023-08-21T17:53:50.669Z,8.10
2023-08-21T17:56:21.876Z,6.10
2023-08-21T17:58:52.705Z,6.00
2023-08-21T18:01:24.600Z,6.40
2023-08-21T18:03:55.561Z,6.50
2023-08-21T18:06:27.075Z,6.00
2023-08-21T18:08:57.950Z,6.80
2023-08-21T18:11:28.924Z,6.90
2023-08-21T18:13:59.835Z,5.70
2023-08-21T18:16:32.956Z,6.50
2023-08-21T18:19:04.140Z,6.90
2023-08-21T18:21:35.117Z,6.70
2023-08-21T18:24:06.576Z,6.80
2023-08-21T18:26:38.445Z,6.70
2023-08-21T18:29:09.292Z,7.00
2023-08-21T18:31:40.196Z,6.70
2023-08-21T18:34:11.332Z,6.90
2023-08-21T18:36:42.238Z,7.40
2023-08-21T18:39:13.396Z,6.60
2023-08-21T18:41:45.288Z,6.20
2023-08-21T18:44:16.222Z,6.90
2023-08-21T18:46:47.554Z,6.90
2023-08-21T18:49:18.603Z,6.80
2023-08-21T18:51:49.636Z,7.40
2023-08-21T18:54:24.607Z,7.10
2023-08-21T18:56:56.410Z,7.00
2023-08-21T18:59:27.397Z,7.40
2023-08-21T19:01:59.306Z,7.30
2023-08-21T19:04:33.435Z,7.30
2023-08-21T19:07:06.965Z,6.70
2023-08-21T19:09:38.478Z,8.10
2023-08-21T19:12:10.485Z,8.40
2023-08-21T19:14:41.726Z,7.40
2023-08-21T19:17:12.701Z,7.90
2023-08-21T19:19:43.768Z,8.20
2023-08-21T19:22:14.740Z,8.70
2023-08-21T19:24:45.813Z,8.30
2023-08-21T19:27:17.123Z,8.70
2023-08-21T19:29:49.742Z,8.90
2023-08-21T19:32:20.919Z,8.00
2023-08-21T19:34:52.956Z,8.70
2023-08-21T19:37:23.894Z,8.50
2023-08-21T19:39:54.787Z,8.90
2023-08-21T19:42:26.303Z,11.20
2023-08-21T19:44:57.335Z,9.10
2023-08-21T19:47:28.141Z,8.70
2023-08-21T19:49:59.376Z,9.20
2023-08-21T19:52:30.424Z,9.50
2023-08-21T19:55:01.466Z,9.20
2023-08-21T19:57:32.813Z,9.10
2023-08-21T20:00:06.361Z,10.10
2023-08-21T20:02:38.082Z,12.00
2023-08-21T20:05:10.681Z,10.00
2023-08-21T20:07:42.045Z,9.90
2023-08-21T20:10:14.224Z,9.50
2023-08-21T20:12:46.666Z,9.40
2023-08-21T20:15:18.027Z,8.90
2023-08-21T20:17:49.207Z,10.40
2023-08-21T20:20:20.118Z,9.30
2023-08-21T20:22:51.074Z,9.60
2023-08-21T20:25:22.441Z,11.30
2023-08-21T20:27:53.409Z,8.90
2023-08-21T20:30:24.489Z,13.30
2023-08-21T20:32:55.377Z,10.80
2023-08-21T20:35:26.200Z,9.80
2023-08-21T20:37:57.222Z,12.30
2023-08-21T20:40:28.523Z,10.30
2023-08-21T20:42:59.418Z,10.10
2023-08-21T20:45:31.588Z,10.30
2023-08-21T20:48:02.767Z,9.00
2023-08-21T20:50:35.991Z,11.20
2023-08-21T20:53:07.374Z,10.10
2023-08-21T20:55:38.754Z,11.80
2023-08-21T20:58:09.530Z,9.60
2023-08-21T21:00:40.527Z,11.10
2023-08-21T21:03:11.471Z,9.70
2023-08-21T21:05:42.413Z,10.50
2023-08-21T21:08:13.350Z,11.10
2023-08-21T21:10:44.281Z,10.80
2023-08-21T21:13:15.080Z,9.80
2023-08-21T21:15:45.782Z,9.40
2023-08-21T21:18:16.637Z,10.80
2023-08-21T21:20:47.580Z,9.60
2023-08-21T21:23:18.402Z,9.80
2023-08-21T21:25:49.132Z,10.00
2023-08-21T21:28:19.824Z,11.00
2023-08-21T21:30:56.787Z,10.20
2023-08-21T21:33:29.064Z,9.70
2023-08-21T21:36:03.776Z,9.60
2023-08-21T21:38:35.650Z,10.30
2023-08-21T21:41:06.415Z,10.60
2023-08-21T21:43:37.162Z,10.80
2023-08-21T21:46:11.078Z,10.20
2023-08-21T21:48:42.152Z,10.00
2023-08-21T21:51:13.324Z,10.60
2023-08-21T21:53:44.130Z,10.30
2023-08-21T21:56:14.912Z,9.90
2023-08-21T21:58:46.128Z,9.40
2023-08-21T22:01:18.435Z,10.80
2023-08-21T22:03:50.430Z,10.00
2023-08-21T22:06:21.457Z,10.30
2023-08-21T22:08:52.474Z,10.50
2023-08-21T22:11:23.321Z,10.40
2023-08-21T22:13:54.241Z,9.80
2023-08-21T22:16:25.092Z,10.80
2023-08-21T22:18:55.953Z,10.30
2023-08-21T22:21:26.819Z,10.10
2023-08-21T22:23:57.797Z,9.80
2023-08-21T22:26:28.506Z,10.40
2023-08-21T22:28:59.283Z,10.00
2023-08-21T22:31:41.138Z,10.70
2023-08-21T22:34:12.790Z,9.90
2023-08-21T22:36:44.897Z,10.30
2023-08-21T22:39:15.622Z,10.90
2023-08-21T22:41:46.806Z,9.70
2023-08-21T22:44:17.630Z,9.80
2023-08-21T22:46:50.000Z,9.80
2023-08-21T22:49:20.765Z,9.70
2023-08-21T22:51:53.232Z,10.80
2023-08-21T22:54:24.243Z,9.30
2023-08-21T22:56:54.958Z,10.20
2023-08-21T22:59:25.756Z,9.60
2023-08-21T23:01:56.792Z,10.10
2023-08-21T23:04:27.536Z,10.50
2023-08-21T23:06:58.664Z,10.00
2023-08-21T23:09:30.331Z,10.20
2023-08-21T23:12:01.116Z,10.70
2023-08-21T23:14:33.773Z,9.80
2023-08-21T23:17:06.147Z,10.60
2023-08-21T23:19:37.075Z,11.30
2023-08-21T23:22:08.009Z,11.60
2023-08-21T23:24:38.707Z,10.00
2023-08-21T23:27:10.005Z,10.40
2023-08-21T23:29:40.857Z,10.20
2023-08-21T23:32:11.636Z,10.40
2023-08-21T23:34:42.407Z,10.60
2023-08-21T23:37:13.100Z,10.90
2023-08-21T23:39:43.799Z,9.80
2023-08-21T23:42:14.555Z,10.80
2023-08-21T23:44:45.590Z,10.50
2023-08-21T23:47:16.712Z,10.90
2023-08-21T23:49:47.656Z,10.30
2023-08-21T23:52:18.571Z,10.10
2023-08-21T23:54:49.339Z,9.50
2023-08-21T23:57:20.335Z,9.90
2023-08-21T23:59:51.056Z,10.50
